Time;durP1;ratioP1;P1;durP2;ratioP2;P2;SDS_P1;SDS_P2;PMS_P1;PMS_P2;Temp;Humidity;BMP_temperature;BMP_pressure;BME280_temperature;BME280_humidity;BME280_pressure;Samples;Min_cycle;Max_cycle;Signal;HPM_P1;HPM_P2
2023/07/23 00:01:45;;;;;;;10.45;4.15;;;;;;;20.47;81.02;98177.63;4365411;32;20147;-77
2023/07/23 00:04:12;;;;;;;9.40;3.40;;;;;;;20.19;82.27;98183.38;4365425;32;20390;-77
2023/07/23 00:06:39;;;;;;;9.55;4.00;;;;;;;20.26;82.15;98186.34;4365079;32;20114;-78
2023/07/23 00:09:06;;;;;;;8.50;3.70;;;;;;;20.17;82.81;98180.06;4365235;32;20130;-77
2023/07/23 00:11:33;;;;;;;8.40;3.72;;;;;;;20.25;81.84;98185.53;4365510;32;20501;-77
2023/07/23 00:14:00;;;;;;;7.85;3.47;;;;;;;20.21;82.07;98187.56;4364888;32;20411;-78
2023/07/23 00:16:27;;;;;;;10.55;3.80;;;;;;;20.09;82.84;98185.06;4365257;32;20107;-77
2023/07/23 00:18:54;;;;;;;12.63;4.10;;;;;;;19.71;84.45;98188.94;4364880;32;20106;-78
2023/07/23 00:21:21;;;;;;;10.90;4.05;;;;;;;20.09;82.49;98188.53;4364218;32;20154;-78
2023/07/23 00:23:48;;;;;;;9.07;3.65;;;;;;;19.46;85.95;98192.59;4365250;32;20111;-77
2023/07/23 00:26:15;;;;;;;14.05;3.97;;;;;;;19.89;83.56;98189.28;4364964;32;20469;-78
2023/07/23 00:28:41;;;;;;;8.25;3.28;;;;;;;19.70;85.06;98187.25;4365180;32;20134;-77
2023/07/23 00:31:08;;;;;;;7.68;3.30;;;;;;;19.65;85.70;98184.97;4365282;32;20167;-77
2023/07/23 00:33:35;;;;;;;9.95;4.03;;;;;;;19.64;86.08;98198.19;4364190;32;20117;-78
2023/07/23 00:36:02;;;;;;;8.30;3.70;;;;;;;19.60;87.18;98189.75;4365269;32;20490;-77
2023/07/23 00:38:29;;;;;;;13.55;4.20;;;;;;;19.27;90.01;98190.53;4365034;32;20072;-77
2023/07/23 00:40:56;;;;;;;12.52;4.07;;;;;;;19.46;89.19;98186.47;4364921;32;20105;-78
2023/07/23 00:43:23;;;;;;;8.77;3.80;;;;;;;19.35;89.83;98189.91;4365109;32;20142;-77
2023/07/23 00:45:50;;;;;;;8.88;3.67;;;;;;;19.44;89.88;98183.16;4365133;32;20157;-77
2023/07/23 00:48:18;;;;;;;10.32;3.92;;;;;;;19.30;90.67;98187.66;4364722;32;20102;-78
2023/07/23 00:50:45;;;;;;;9.40;4.12;;;;;;;19.40;90.96;98181.75;4365143;32;20130;-77
2023/07/23 00:53:12;;;;;;;10.27;4.15;;;;;;;19.15;91.61;98183.59;4365078;32;20151;-77
2023/07/23 00:55:39;;;;;;;11.23;3.70;;;;;;;19.77;88.50;98180.56;4363353;32;20517;-78
2023/07/23 00:58:06;;;;;;;8.57;3.67;;;;;;;19.78;87.88;98184.03;4364906;32;20075;-77
2023/07/23 01:00:33;;;;;;;10.57;4.22;;;;;;;19.89;87.20;98187.50;4364102;32;20137;-77
2023/07/23 01:03:00;;;;;;;10.65;3.87;;;;;;;19.80;87.59;98187.37;4364542;32;20174;-78
2023/07/23 01:05:28;;;;;;;9.02;3.72;;;;;;;19.90;87.01;98177.84;4363901;32;20197;-77
2023/07/23 01:07:55;;;;;;;17.87;4.47;;;;;;;19.87;87.68;98181.53;4363481;32;20174;-78
2023/07/23 01:10:22;;;;;;;10.93;3.85;;;;;;;19.59;89.12;98174.19;4363803;32;20446;-78
2023/07/23 01:12:51;;;;;;;10.23;3.95;;;;;;;19.79;88.61;98172.63;4363890;32;20166;-77
2023/07/23 01:15:18;;;;;;;9.60;4.00;;;;;;;19.63;89.04;98168.56;4364660;32;20449;-78
2023/07/23 01:17:46;;;;;;;9.68;3.95;;;;;;;19.57;89.16;98174.31;4364814;32;20467;-77
2023/07/23 01:20:13;;;;;;;9.65;3.65;;;;;;;19.16;92.55;98181.81;4365094;32;20099;-77
2023/07/23 01:22:40;;;;;;;10.38;4.00;;;;;;;19.52;89.94;98181.63;4364528;32;20090;-78
2023/07/23 01:25:07;;;;;;;10.68;3.95;;;;;;;19.54;88.59;98171.03;4364903;32;20088;-77
2023/07/23 01:27:34;;;;;;;9.50;4.05;;;;;;;19.86;86.79;98182.47;4363650;32;20097;-77
2023/07/23 01:30:01;;;;;;;9.35;3.65;;;;;;;19.49;89.52;98181.88;4363398;32;20106;-78
2023/07/23 01:32:28;;;;;;;9.95;4.30;;;;;;;19.73;88.27;98168.69;4364903;32;20109;-78
2023/07/23 01:34:57;;;;;;;9.15;3.97;;;;;;;19.82;86.59;98172.37;4364774;32;20087;-78
2023/07/23 01:37:24;;;;;;;8.70;3.67;;;;;;;19.94;85.73;98172.25;4363187;32;20114;-78
2023/07/23 01:39:51;;;;;;;9.25;3.67;;;;;;;19.59;87.92;98179.41;4364734;32;20468;-77
2023/07/23 01:42:18;;;;;;;9.80;3.78;;;;;;;19.65;87.80;98182.38;4364858;32;20095;-77
2023/07/23 01:44:45;;;;;;;8.75;3.65;;;;;;;19.31;89.31;98173.63;4363113;32;20090;-78
2023/07/23 01:47:12;;;;;;;9.25;3.83;;;;;;;19.34;88.83;98172.56;4364687;32;20151;-77
2023/07/23 01:49:39;;;;;;;8.60;3.40;;;;;;;19.31;89.56;98178.87;4364577;32;20101;-77
2023/07/23 01:52:06;;;;;;;9.57;3.55;;;;;;;19.35;89.22;98169.00;4364327;32;20102;-78
2023/07/23 01:54:33;;;;;;;9.27;3.80;;;;;;;19.59;87.51;98177.63;4364483;32;20166;-78
2023/07/23 01:57:02;;;;;;;8.73;3.67;;;;;;;19.46;87.60;98170.78;4364118;32;20095;-78
2023/07/23 01:59:29;;;;;;;8.60;3.70;;;;;;;19.46;87.67;98162.94;4364278;32;20118;-78
2023/07/23 02:01:56;;;;;;;9.70;3.53;;;;;;;19.50;87.45;98162.59;4363507;32;20162;-77
2023/07/23 02:04:23;;;;;;;9.75;3.90;;;;;;;19.07;90.96;98171.09;4364058;32;20156;-78
2023/07/23 02:06:50;;;;;;;10.18;3.90;;;;;;;19.03;91.31;98169.69;4364486;32;20075;-78
2023/07/23 02:09:17;;;;;;;7.87;3.37;;;;;;;19.17;90.28;98173.84;4364345;32;20525;-77
2023/07/23 02:11:44;;;;;;;9.27;3.67;;;;;;;19.12;90.35;98178.59;4364115;32;20239;-78
2023/07/23 02:14:11;;;;;;;8.38;3.40;;;;;;;19.13;90.61;98166.34;4364285;32;20169;-77
2023/07/23 02:16:38;;;;;;;8.55;3.83;;;;;;;19.10;90.15;98169.19;4364383;32;20111;-77
2023/07/23 02:19:05;;;;;;;9.25;3.85;;;;;;;19.16;89.66;98169.59;4363764;32;20102;-78
2023/07/23 02:21:32;;;;;;;9.60;3.72;;;;;;;18.93;91.06;98171.31;4363062;32;20462;-78
2023/07/23 02:23:58;;;;;;;9.18;3.65;;;;;;;19.01;90.06;98168.94;4363982;32;20798;-77
2023/07/23 02:26:25;;;;;;;8.65;3.92;;;;;;;19.15;88.63;98169.69;4363802;32;20079;-78
2023/07/23 02:28:52;;;;;;;8.70;3.75;;;;;;;19.24;88.41;98169.81;4364013;32;20099;-77
2023/07/23 02:31:19;;;;;;;10.55;3.58;;;;;;;19.33;86.90;98166.50;4364139;32;20178;-77
2023/07/23 02:33:46;;;;;;;10.75;3.83;;;;;;;19.45;85.93;98161.28;4363666;32;20109;-78
2023/07/23 02:36:13;;;;;;;8.32;3.42;;;;;;;19.28;85.97;98162.59;4364003;32;20106;-77
2023/07/23 02:38:40;;;;;;;8.68;3.35;;;;;;;19.40;85.71;98158.19;4363888;32;20103;-77
2023/07/23 02:41:07;;;;;;;8.63;3.62;;;;;;;19.49;85.30;98160.09;4363741;32;20130;-78
2023/07/23 02:43:34;;;;;;;11.23;3.55;;;;;;;19.64;83.69;98164.16;4363830;32;20105;-77
2023/07/23 02:46:01;;;;;;;8.82;4.03;;;;;;;19.49;83.72;98168.78;4363813;32;20166;-77
2023/07/23 02:48:28;;;;;;;10.10;3.90;;;;;;;19.27;84.47;98171.37;4363373;32;20174;-78
2023/07/23 02:50:55;;;;;;;8.95;4.10;;;;;;;19.25;84.03;98165.44;4363838;32;20162;-78
2023/07/23 02:53:22;;;;;;;8.88;3.72;;;;;;;19.12;84.93;98178.59;4363441;32;20165;-78
2023/07/23 02:55:49;;;;;;;8.75;3.50;;;;;;;18.90;86.91;98174.13;4363782;32;20399;-78
2023/07/23 02:58:16;;;;;;;8.50;3.42;;;;;;;18.69;87.98;98160.88;4365704;32;20102;-77
2023/07/23 03:00:44;;;;;;;10.05;4.03;;;;;;;18.69;88.71;98160.88;4361001;32;147667;-78
2023/07/23 03:03:11;;;;;;;10.32;3.80;;;;;;;18.81;88.15;98166.97;4365803;32;20146;-77
2023/07/23 03:05:42;;;;;;;8.75;3.95;;;;;;;18.93;85.45;98171.31;4365883;32;20105;-77
2023/07/23 03:08:09;;;;;;;11.25;4.30;;;;;;;18.73;86.07;98170.19;4365476;32;20481;-77
2023/07/23 03:10:36;;;;;;;9.77;3.95;;;;;;;18.24;89.85;98180.72;4365826;32;20154;-78
2023/07/23 03:13:03;;;;;;;9.18;4.22;;;;;;;17.91;92.54;98174.34;4365685;32;20091;-78
2023/07/23 03:15:30;;;;;;;9.63;4.30;;;;;;;18.03;92.02;98167.41;4365509;32;20099;-78
2023/07/23 03:17:57;;;;;;;10.18;4.07;;;;;;;18.15;91.44;98168.31;4365534;32;20099;-77
2023/07/23 03:20:24;;;;;;;11.68;4.30;;;;;;;18.18;90.99;98166.34;4364664;32;20107;-77
2023/07/23 03:22:51;;;;;;;10.98;3.90;;;;;;;18.39;90.85;98173.53;4365333;32;20111;-78
2023/07/23 03:25:18;;;;;;;8.50;3.67;;;;;;;18.74;89.12;98164.00;4365775;32;20378;-77
2023/07/23 03:27:45;;;;;;;8.38;3.58;;;;;;;18.39;90.81;98168.31;4365541;32;20166;-77
2023/07/23 03:30:12;;;;;;;7.57;3.42;;;;;;;18.61;89.54;98167.56;4364291;32;20153;-78
2023/07/23 03:32:39;;;;;;;8.35;3.42;;;;;;;18.53;88.98;98167.31;4364480;32;20091;-77
2023/07/23 03:35:07;;;;;;;8.15;3.62;;;;;;;18.95;87.06;98161.56;4365690;32;20106;-77
2023/07/23 03:37:34;;;;;;;10.35;3.67;;;;;;;19.17;85.84;98165.19;4365110;32;20141;-78
2023/07/23 03:40:00;;;;;;;9.45;3.72;;;;;;;19.00;86.81;98163.81;4365701;32;20111;-78
2023/07/23 03:42:27;;;;;;;9.20;3.90;;;;;;;19.10;85.87;98161.34;4365327;32;20761;-78
2023/07/23 03:44:54;;;;;;;8.57;3.20;;;;;;;18.99;86.96;98165.59;4365498;32;20099;-77
2023/07/23 03:47:21;;;;;;;8.70;3.58;;;;;;;19.08;86.32;98167.53;4365585;32;20144;-77
2023/07/23 03:49:48;;;;;;;8.43;3.45;;;;;;;19.16;85.95;98176.59;4365306;32;20138;-78
2023/07/23 03:52:15;;;;;;;7.95;3.22;;;;;;;19.40;84.69;98171.28;4365556;32;20153;-77
2023/07/23 03:54:42;;;;;;;8.57;3.45;;;;;;;19.18;84.91;98180.75;4364282;32;20091;-78
2023/07/23 03:57:09;;;;;;;9.80;3.58;;;;;;;19.34;84.71;98176.00;4363676;32;20126;-78
2023/07/23 03:59:42;;;;;;;9.55;3.25;;;;;;;19.47;82.49;98167.25;4364349;32;20098;-78
2023/07/23 04:02:09;;;;;;;10.63;3.33;;;;;;;20.04;79.15;98176.75;4365482;32;20120;-77
2023/07/23 04:04:37;;;;;;;7.28;3.08;;;;;;;20.23;77.33;98182.22;4363953;32;20087;-78
2023/07/23 04:07:05;;;;;;;10.80;3.67;;;;;;;20.27;76.69;98183.62;4363933;32;20098;-78
2023/07/23 04:09:32;;;;;;;9.77;3.62;;;;;;;19.99;79.38;98185.00;4364921;32;20142;-77
2023/07/23 04:12:00;;;;;;;8.65;3.30;;;;;;;20.27;78.72;98183.62;4365022;32;20094;-78
2023/07/23 04:14:27;;;;;;;9.65;3.55;;;;;;;20.27;78.97;98177.53;4364210;32;20154;-77
2023/07/23 04:16:54;;;;;;;8.13;3.42;;;;;;;20.49;77.92;98182.75;4365461;32;20180;-77
2023/07/23 04:19:22;;;;;;;8.80;3.53;;;;;;;21.06;75.69;98181.56;4364898;32;20504;-78
2023/07/23 04:21:49;;;;;;;8.75;3.50;;;;;;;21.29;73.86;98183.12;4365470;32;20480;-77
2023/07/23 04:24:16;;;;;;;8.40;3.45;;;;;;;21.82;71.62;98180.31;4365396;32;20095;-77
2023/07/23 04:26:43;;;;;;;7.07;3.20;;;;;;;22.66;68.62;98196.59;4365092;32;20109;-78
2023/07/23 04:29:10;;;;;;;11.65;3.40;;;;;;;23.27;64.13;98193.63;4363971;32;20110;-78
2023/07/23 04:31:37;;;;;;;8.43;3.30;;;;;;;23.46;63.08;98189.31;4365066;32;20101;-78
2023/07/23 04:34:04;;;;;;;6.78;2.90;;;;;;;23.90;61.30;98190.41;4365262;32;20072;-78
2023/07/23 04:36:31;;;;;;;7.50;2.95;;;;;;;24.14;59.85;98189.91;4365249;32;20104;-78
2023/07/23 04:39:00;;;;;;;8.02;2.80;;;;;;;24.24;59.31;98183.59;4364834;32;20169;-78
2023/07/23 04:41:27;;;;;;;7.25;2.97;;;;;;;24.27;59.27;98190.38;4365317;32;20149;-78
2023/07/23 04:43:55;;;;;;;6.70;2.60;;;;;;;24.63;58.12;98185.97;4365139;32;20084;-78
2023/07/23 04:46:22;;;;;;;7.65;2.80;;;;;;;24.62;57.78;98189.59;4364910;32;20131;-78
2023/07/23 04:48:49;;;;;;;8.05;3.37;;;;;;;24.95;56.95;98192.53;4365064;32;20091;-78
2023/07/23 04:51:16;;;;;;;8.02;3.08;;;;;;;25.39;55.54;98191.56;4365260;32;20529;-78
2023/07/23 04:53:43;;;;;;;6.45;2.53;;;;;;;25.77;54.43;98189.50;4364781;32;20180;-78
2023/07/23 04:56:10;;;;;;;8.00;2.87;;;;;;;25.91;53.59;98199.47;4364888;32;20114;-78
2023/07/23 04:58:37;;;;;;;7.75;2.62;;;;;;;26.38;52.30;98193.72;4364973;32;20091;-78
2023/07/23 05:01:12;;;;;;;6.85;2.60;;;;;;;26.29;52.02;98199.94;4363682;32;20091;-78
2023/07/23 05:03:39;;;;;;;7.25;2.80;;;;;;;26.55;51.62;98201.69;4365199;32;20221;-78
2023/07/23 05:06:07;;;;;;;7.25;2.78;;;;;;;26.47;51.37;98203.31;4365120;32;20091;-78
2023/07/23 05:08:34;;;;;;;5.62;2.33;;;;;;;26.80;50.35;98195.44;4364622;32;20090;-78
2023/07/23 05:11:02;;;;;;;8.70;2.65;;;;;;;27.17;49.37;98196.78;4364025;32;20082;-78
2023/07/23 05:13:30;;;;;;;5.93;2.50;;;;;;;27.95;47.57;98199.63;4364709;32;20426;-79
2023/07/23 05:16:02;;;;;;;6.55;2.53;;;;;;;28.44;46.09;98199.41;4364967;32;20511;-78
2023/07/23 05:18:30;;;;;;;7.10;2.80;;;;;;;29.63;42.63;98193.50;4364519;32;20091;-78
2023/07/23 05:20:57;;;;;;;6.25;2.70;;;;;;;30.59;41.07;98200.44;4363591;32;20095;-79
2023/07/23 05:23:24;;;;;;;5.97;2.60;;;;;;;31.21;39.67;98202.53;4364984;32;20087;-78
2023/07/23 05:25:51;;;;;;;6.53;2.78;;;;;;;31.27;39.47;98204.44;4364943;32;20113;-78
2023/07/23 05:28:18;;;;;;;5.37;2.50;;;;;;;30.94;39.43;98212.09;4364568;32;20127;-79
2023/07/23 05:30:45;;;;;;;5.87;2.42;;;;;;;31.47;38.58;98201.87;4365000;32;20170;-78
2023/07/23 05:33:12;;;;;;;5.55;2.45;;;;;;;31.42;38.45;98214.97;4364811;32;20445;-78
2023/07/23 05:35:39;;;;;;;8.35;2.70;;;;;;;32.05;37.76;98199.78;4364537;32;20449;-79
2023/07/23 05:38:06;;;;;;;6.00;2.65;;;;;;;32.19;37.20;98203.31;4363449;32;20181;-77
2023/07/23 05:40:36;;;;;;;6.87;3.10;;;;;;;32.59;36.08;98208.84;4364937;32;20095;-77
2023/07/23 05:43:16;;;;;;;5.25;2.53;;;;;;;32.03;37.46;98209.03;4364424;32;20083;-79
2023/07/23 05:45:43;;;;;;;5.75;2.65;;;;;;;32.69;37.08;98209.28;4364957;32;20152;-78
2023/07/23 05:48:10;;;;;;;5.93;2.30;;;;;;;32.48;37.64;98212.91;4364586;32;20106;-78
2023/07/23 05:50:37;;;;;;;6.68;2.72;;;;;;;31.90;37.52;98221.28;4364414;32;20461;-78
2023/07/23 05:53:04;;;;;;;6.93;2.70;;;;;;;31.60;37.97;98219.84;4363458;32;20519;-78
2023/07/23 05:55:31;;;;;;;6.90;2.60;;;;;;;31.82;38.32;98218.78;4364430;32;20137;-77
2023/07/23 05:57:58;;;;;;;5.72;2.35;;;;;;;31.58;38.67;98219.19;4364411;32;20174;-78
2023/07/23 06:00:25;;;;;;;5.68;2.67;;;;;;;32.18;38.35;98221.19;4364592;32;20083;-78
2023/07/23 06:02:52;;;;;;;7.68;2.60;;;;;;;32.00;38.19;98220.91;4363104;32;20482;-79
2023/07/23 06:05:19;;;;;;;5.00;2.45;;;;;;;31.79;38.09;98226.31;4364416;32;20102;-78
2023/07/23 06:07:46;;;;;;;6.37;2.62;;;;;;;32.34;37.90;98222.75;4364396;32;20126;-78
2023/07/23 06:10:13;;;;;;;6.70;2.60;;;;;;;32.48;37.63;98224.41;4364129;32;20142;-79
2023/07/23 06:12:40;;;;;;;6.80;2.58;;;;;;;32.16;37.55;98231.25;4364389;32;20083;-78
2023/07/23 06:15:09;;;;;;;6.57;2.55;;;;;;;31.74;38.53;98232.22;4364338;32;20111;-78
2023/07/23 06:17:36;;;;;;;6.03;2.58;;;;;;;31.08;39.89;98231.69;4363939;32;20165;-78
2023/07/23 06:20:04;;;;;;;7.47;2.97;;;;;;;30.75;40.32;98229.53;4364250;32;20101;-77
2023/07/23 06:22:31;;;;;;;7.50;2.65;;;;;;;30.45;41.43;98226.13;4364273;32;20521;-77
2023/07/23 06:24:57;;;;;;;6.75;2.90;;;;;;;30.72;41.35;98216.59;4363857;32;20162;-78
2023/07/23 06:27:24;;;;;;;6.87;2.90;;;;;;;30.65;40.77;98225.53;4364054;32;20094;-78
2023/07/23 06:29:51;;;;;;;7.57;3.20;;;;;;;30.61;40.07;98232.22;4364164;32;20083;-77
2023/07/23 06:32:18;;;;;;;6.97;2.90;;;;;;;30.38;41.64;98227.03;4365246;32;20150;-78
2023/07/23 06:34:45;;;;;;;6.97;2.83;;;;;;;30.30;42.65;98225.31;4365975;32;20099;-78
2023/07/23 06:37:12;;;;;;;5.65;2.42;;;;;;;30.27;42.32;98233.66;4366015;32;20126;-77
2023/07/23 06:39:39;;;;;;;7.85;3.40;;;;;;;30.14;42.38;98231.66;4365553;32;20083;-79
2023/07/23 06:42:06;;;;;;;9.48;3.28;;;;;;;29.91;43.88;98223.78;4365942;32;20118;-77
2023/07/23 06:44:33;;;;;;;6.30;2.80;;;;;;;29.62;44.33;98226.41;4365940;32;20406;-77
2023/07/23 06:47:00;;;;;;;7.28;2.80;;;;;;;29.38;44.95;98230.09;4365675;32;20091;-78
2023/07/23 06:49:28;;;;;;;10.10;3.28;;;;;;;29.75;44.01;98228.44;4365714;32;20277;-77
2023/07/23 06:51:56;;;;;;;6.97;2.97;;;;;;;29.80;43.33;98226.88;4365595;32;20079;-78
2023/07/23 06:54:23;;;;;;;6.50;2.78;;;;;;;29.86;43.17;98226.13;4365713;32;20114;-77
2023/07/23 06:56:51;;;;;;;6.87;2.42;;;;;;;29.60;44.45;98228.44;4365615;32;20109;-77
2023/07/23 06:59:19;;;;;;;6.25;2.70;;;;;;;30.10;43.70;98225.06;4365254;32;20087;-78
2023/07/23 07:01:46;;;;;;;7.25;2.92;;;;;;;30.44;43.01;98228.97;4365878;32;20118;-78
2023/07/23 07:04:13;;;;;;;6.68;2.50;;;;;;;30.47;41.38;98218.75;4365784;32;20509;-78
2023/07/23 07:06:40;;;;;;;6.50;2.80;;;;;;;30.19;43.68;98226.59;4365500;32;20110;-78
2023/07/23 07:09:07;;;;;;;6.37;2.78;;;;;;;30.55;41.99;98228.47;4365620;32;20087;-77
2023/07/23 07:11:34;;;;;;;6.95;2.90;;;;;;;30.70;41.67;98226.59;4365743;32;20083;-77
2023/07/23 07:14:00;;;;;;;7.07;3.00;;;;;;;30.68;41.09;98227.81;4365346;32;20129;-78
2023/07/23 07:16:27;;;;;;;7.32;3.05;;;;;;;30.86;41.62;98230.88;4364631;32;20141;-78
2023/07/23 07:18:54;;;;;;;7.28;3.12;;;;;;;30.18;42.41;98235.59;4365353;32;20150;-78
2023/07/23 07:21:21;;;;;;;8.20;2.90;;;;;;;29.73;42.20;98231.28;4365355;32;20097;-78
2023/07/23 07:23:48;;;;;;;6.82;3.10;;;;;;;29.97;42.38;98224.84;4365582;32;20091;-78
2023/07/23 07:26:15;;;;;;;7.22;2.75;;;;;;;30.17;41.34;98227.81;4365742;32;20463;-78
2023/07/23 07:28:42;;;;;;;7.20;3.08;;;;;;;30.39;42.13;98226.03;4365227;32;20583;-78
2023/07/23 07:31:11;;;;;;;6.93;2.80;;;;;;;30.27;41.32;98222.19;4364500;32;20088;-78
2023/07/23 07:33:39;;;;;;;6.10;2.60;;;;;;;30.02;41.96;98230.47;4365530;32;20164;-77
2023/07/23 07:36:06;;;;;;;5.90;2.90;;;;;;;30.80;40.01;98223.63;4365289;32;20099;-78
2023/07/23 07:38:33;;;;;;;6.57;3.00;;;;;;;30.75;40.86;98231.38;4365397;32;20110;-78
2023/07/23 07:41:01;;;;;;;7.87;3.05;;;;;;;31.06;41.14;98228.41;4365363;32;20075;-79
2023/07/23 07:43:28;;;;;;;5.60;2.70;;;;;;;30.82;39.01;98232.25;4364086;32;20107;-78
2023/07/23 07:46:03;;;;;;;7.82;3.10;;;;;;;30.20;41.29;98233.59;4365549;32;20109;-78
2023/07/23 07:48:30;;;;;;;8.25;2.97;;;;;;;30.39;40.51;98234.00;4365179;32;20504;-78
2023/07/23 07:51:00;;;;;;;7.37;3.10;;;;;;;30.80;38.59;98228.97;4365490;32;20075;-78
2023/07/23 07:53:27;;;;;;;8.05;3.40;;;;;;;30.60;39.09;98228.72;4364402;32;20121;-78
2023/07/23 07:55:55;;;;;;;6.32;3.03;;;;;;;30.38;40.52;98230.53;4364889;32;20103;-78
2023/07/23 07:58:26;;;;;;;6.10;2.80;;;;;;;30.75;41.17;98226.06;4365306;32;20095;-78
2023/07/23 08:00:56;;;;;;;6.32;2.58;;;;;;;30.34;41.02;98231.09;4365476;32;20119;-78
2023/07/23 08:03:25;;;;;;;6.72;2.78;;;;;;;30.16;39.36;98234.16;4365011;32;20157;-78
2023/07/23 08:05:53;;;;;;;7.87;3.00;;;;;;;30.45;39.41;98228.78;4365388;32;20087;-77
2023/07/23 08:08:25;;;;;;;8.82;3.20;;;;;;;30.01;39.24;98235.97;4365247;32;20107;-77
2023/07/23 08:10:55;;;;;;;6.37;2.72;;;;;;;29.90;39.84;98235.41;4365133;32;20083;-78
2023/07/23 08:13:22;;;;;;;7.65;2.97;;;;;;;29.79;39.58;98235.88;4365297;32;20162;-77
2023/07/23 08:15:49;;;;;;;6.78;2.70;;;;;;;30.35;39.19;98235.41;4364300;32;20125;-77
2023/07/23 08:18:20;;;;;;;8.45;3.20;;;;;;;30.35;39.19;98238.88;4365259;32;20165;-78
2023/07/23 08:20:47;;;;;;;7.50;3.10;;;;;;;30.42;36.99;98239.81;4364121;32;20162;-78
2023/07/23 08:23:14;;;;;;;6.37;2.87;;;;;;;30.63;38.37;98231.03;4364897;32;20637;-78
2023/07/23 08:25:43;;;;;;;6.43;2.92;;;;;;;30.87;39.85;98240.53;4364241;32;20451;-77
2023/07/23 08:28:12;;;;;;;6.82;2.95;;;;;;;30.52;39.98;98234.19;4364037;32;20091;-77
2023/07/23 08:30:39;;;;;;;6.93;2.70;;;;;;;30.56;41.03;98235.44;4363765;32;20151;-78
2023/07/23 08:33:06;;;;;;;6.10;2.53;;;;;;;31.44;38.85;98244.12;4365078;32;20138;-78
2023/07/23 08:35:34;;;;;;;7.32;2.70;;;;;;;31.49;38.96;98239.03;4365140;32;20504;-78
2023/07/23 08:38:01;;;;;;;7.47;3.03;;;;;;;31.30;37.38;98237.84;4364696;32;20114;-78
2023/07/23 08:40:29;;;;;;;6.18;2.75;;;;;;;31.31;38.07;98240.34;4365158;32;20106;-78
2023/07/23 08:43:02;;;;;;;5.50;2.55;;;;;;;31.15;39.87;98242.41;4364070;32;20170;-78
2023/07/23 08:45:48;;;;;;;6.75;2.78;;;;;;;31.34;38.63;98231.13;4363734;32;20156;-78
2023/07/23 08:48:20;;;;;;;6.75;2.45;;;;;;;31.27;40.00;98240.91;4365074;32;20170;-78
2023/07/23 08:50:48;;;;;;;8.10;3.35;;;;;;;31.23;39.34;98239.63;4365118;32;20118;-78
2023/07/23 08:53:17;;;;;;;6.25;2.67;;;;;;;31.00;39.09;98239.81;4363257;32;20107;-78
2023/07/23 08:55:45;;;;;;;6.82;2.87;;;;;;;31.00;42.10;98242.47;4364665;32;20103;-78
2023/07/23 08:58:14;;;;;;;6.82;3.05;;;;;;;30.81;41.99;98235.94;4363449;32;20170;-78
2023/07/23 09:00:43;;;;;;;7.30;2.42;;;;;;;30.41;42.56;98242.63;4365015;32;20563;-78
2023/07/23 09:03:11;;;;;;;6.75;2.40;;;;;;;30.46;39.57;98238.41;4363771;32;20173;-78
2023/07/23 09:05:39;;;;;;;5.97;2.50;;;;;;;30.74;40.97;98227.06;4364793;32;20146;-79
2023/07/23 09:08:07;;;;;;;6.85;2.65;;;;;;;30.80;40.17;98232.44;4364840;32;20521;-78
2023/07/23 09:10:34;;;;;;;8.13;2.97;;;;;;;30.61;40.73;98234.88;4364936;32;20462;-78
2023/07/23 09:13:11;;;;;;;5.72;2.60;;;;;;;30.56;41.07;98232.78;4363386;32;20098;-78
2023/07/23 09:15:38;;;;;;;5.72;2.70;;;;;;;30.91;40.56;98238.28;4363927;32;20119;-78
2023/07/23 09:18:04;;;;;;;7.22;2.95;;;;;;;30.73;40.57;98231.56;4364892;32;20466;-78
2023/07/23 09:20:31;;;;;;;5.47;2.55;;;;;;;30.96;39.24;98231.38;4364558;32;20143;-78
2023/07/23 09:23:08;;;;;;;6.95;2.75;;;;;;;30.83;40.71;98230.41;4364770;32;20162;-78
2023/07/23 09:25:36;;;;;;;6.00;2.87;;;;;;;31.27;40.64;98235.59;4365010;32;20095;-78
2023/07/23 09:28:03;;;;;;;6.05;2.75;;;;;;;31.98;39.25;98232.78;4364493;32;20122;-78
2023/07/23 09:30:30;;;;;;;6.25;2.75;;;;;;;31.86;40.05;98237.88;4363811;32;20450;-78
2023/07/23 09:32:58;;;;;;;6.12;2.70;;;;;;;31.55;39.30;98231.06;4364759;32;20775;-78
2023/07/23 09:35:30;;;;;;;6.35;2.80;;;;;;;32.21;38.01;98228.78;4364587;32;20099;-79
2023/07/23 09:37:57;;;;;;;6.18;2.60;;;;;;;32.49;39.77;98228.72;4364789;32;20091;-78
2023/07/23 09:40:35;;;;;;;6.28;2.65;;;;;;;32.39;38.83;98228.28;4363271;32;20091;-79
2023/07/23 09:43:03;;;;;;;5.40;2.30;;;;;;;32.23;35.80;98229.44;4363572;32;20103;-78
2023/07/23 09:45:40;;;;;;;6.12;2.60;;;;;;;32.01;36.85;98232.41;4363722;32;20090;-78
2023/07/23 09:48:07;;;;;;;7.22;2.50;;;;;;;32.46;38.79;98228.31;4362998;32;20152;-79
2023/07/23 09:50:37;;;;;;;6.62;2.90;;;;;;;32.67;35.24;98216.66;4363619;32;20158;-78
2023/07/23 09:53:08;;;;;;;6.70;2.70;;;;;;;32.27;38.69;98224.53;4364514;32;20403;-78
2023/07/23 09:55:35;;;;;;;6.45;2.67;;;;;;;31.85;39.46;98228.22;4364142;32;20117;-79
2023/07/23 09:58:02;;;;;;;6.15;2.53;;;;;;;32.48;38.41;98219.09;4363383;32;20154;-78
2023/07/23 10:00:29;;;;;;;6.10;2.67;;;;;;;32.87;38.11;98216.75;4363321;32;20538;-78
2023/07/23 10:02:57;;;;;;;7.05;2.80;;;;;;;32.40;35.82;98213.91;4363086;32;20122;-78
2023/07/23 10:05:27;;;;;;;5.82;2.67;;;;;;;32.01;36.79;98214.56;4363418;32;20137;-78
2023/07/23 10:07:54;;;;;;;7.07;2.92;;;;;;;32.36;37.99;98210.00;4363169;32;20103;-78
2023/07/23 10:10:21;;;;;;;6.12;2.83;;;;;;;32.34;40.28;98209.37;4364080;32;20075;-78
2023/07/23 10:12:48;;;;;;;5.32;2.80;;;;;;;32.15;41.10;98208.25;4364134;32;20107;-78
2023/07/23 10:15:15;;;;;;;6.15;2.60;;;;;;;32.77;40.22;98209.09;4362967;32;20120;-79
2023/07/23 10:17:46;;;;;;;6.05;2.50;;;;;;;32.58;36.64;98194.66;4364293;32;20149;-79
2023/07/23 10:20:14;;;;;;;6.65;2.83;;;;;;;32.37;39.84;98198.31;4363059;32;20083;-78
2023/07/23 10:22:45;;;;;;;6.80;2.85;;;;;;;31.93;40.49;98196.88;4363807;32;20106;-79
2023/07/23 10:25:25;;;;;;;7.37;2.80;;;;;;;32.16;39.20;98190.38;4364329;32;20155;-78
2023/07/23 10:28:05;;;;;;;5.40;2.75;;;;;;;32.00;41.44;98191.53;4364016;32;20173;-78
2023/07/23 10:30:34;;;;;;;6.78;2.80;;;;;;;31.46;42.57;98192.22;4363889;32;20134;-79
2023/07/23 10:33:10;;;;;;;7.72;2.90;;;;;;;31.86;40.88;98197.84;4364077;32;20123;-78
2023/07/23 10:35:56;;;;;;;7.05;3.05;;;;;;;31.64;40.89;98199.75;4364186;32;20103;-78
2023/07/23 10:38:24;;;;;;;6.32;2.37;;;;;;;31.55;40.42;98208.91;4363482;32;20095;-79
2023/07/23 10:40:51;;;;;;;6.78;2.80;;;;;;;31.62;39.44;98193.78;4364028;32;20146;-78
2023/07/23 10:43:18;;;;;;;6.95;2.75;;;;;;;32.15;39.65;98181.56;4363611;32;20125;-79
2023/07/23 10:46:05;;;;;;;6.50;2.65;;;;;;;32.27;39.21;98183.66;4364019;32;20109;-78
2023/07/23 10:48:50;;;;;;;6.18;2.60;;;;;;;31.58;40.50;98193.38;4363798;32;20161;-78
2023/07/23 10:51:21;;;;;;;4.78;2.25;;;;;;;31.63;41.79;98196.25;4363615;32;20144;-79
2023/07/23 10:53:57;;;;;;;5.37;2.30;;;;;;;31.09;39.48;98185.38;4363776;32;20114;-78
2023/07/23 10:56:29;;;;;;;5.20;2.40;;;;;;;31.27;39.16;98184.94;4362564;32;20123;-78
2023/07/23 10:58:58;;;;;;;5.90;2.62;;;;;;;31.57;39.16;98193.53;4362135;32;20091;-79
2023/07/23 11:01:26;;;;;;;6.28;2.60;;;;;;;31.65;39.24;98196.06;4362491;32;20586;-79
2023/07/23 11:03:57;;;;;;;6.40;2.60;;;;;;;31.30;39.09;98185.38;4362385;32;20166;-79
2023/07/23 11:06:32;;;;;;;7.45;2.37;;;;;;;31.09;40.59;98180.88;4363491;32;20094;-79
2023/07/23 11:09:04;;;;;;;5.87;2.58;;;;;;;30.97;39.76;98185.06;4363558;32;20103;-79
2023/07/23 11:11:39;;;;;;;5.90;2.45;;;;;;;31.29;39.14;98185.56;4363420;32;20083;-79
2023/07/23 11:14:21;;;;;;;5.35;2.40;;;;;;;31.29;37.84;98181.06;4362331;32;20117;-79
2023/07/23 11:16:49;;;;;;;5.15;2.35;;;;;;;31.60;38.50;98180.66;4363892;32;20510;-79
2023/07/23 11:19:18;;;;;;;5.68;2.40;;;;;;;31.93;39.08;98166.69;4365205;32;20087;-79
2023/07/23 11:21:46;;;;;;;5.12;2.28;;;;;;;31.92;38.40;98175.72;4364644;32;20113;-78
2023/07/23 11:24:13;;;;;;;5.62;2.60;;;;;;;31.57;36.61;98173.03;4365655;32;20109;-78
2023/07/23 11:26:40;;;;;;;6.32;2.33;;;;;;;31.86;39.21;98168.50;4364250;32;20463;-79
2023/07/23 11:29:08;;;;;;;6.00;2.28;;;;;;;31.61;38.09;98168.12;4365428;32;20478;-78
2023/07/23 11:31:35;;;;;;;5.93;2.47;;;;;;;31.40;38.93;98166.38;4364609;32;20098;-78
2023/07/23 11:34:02;;;;;;;5.68;2.42;;;;;;;31.45;38.38;98173.78;4365241;32;20118;-79
2023/07/23 11:36:29;;;;;;;6.28;2.67;;;;;;;31.75;37.63;98164.53;4364556;32;20115;-79